sensor_id;sensor_type;location;lat;lon;timestamp;P1;durP1;ratioP1;P2;durP2;ratioP2
25950;SDS011;13748;52.240;6.002;2023-04-07T00:01:38;78.00;;;34.67;;
25950;SDS011;13748;52.240;6.002;2023-04-07T00:04:05;75.47;;;34.10;;
25950;SDS011;13748;52.240;6.002;2023-04-07T00:06:33;80.60;;;35.07;;
25950;SDS011;13748;52.240;6.002;2023-04-07T00:09:00;83.47;;;35.43;;
25950;SDS011;13748;52.240;6.002;2023-04-07T00:11:26;90.00;;;36.27;;
25950;SDS011;13748;52.240;6.002;2023-04-07T00:13:54;96.60;;;36.30;;
25950;SDS011;13748;52.240;6.002;2023-04-07T00:16:21;87.13;;;36.77;;
25950;SDS011;13748;52.240;6.002;2023-04-07T00:18:48;92.80;;;38.00;;
25950;SDS011;13748;52.240;6.002;2023-04-07T00:21:15;94.47;;;38.13;;
25950;SDS011;13748;52.240;6.002;2023-04-07T00:23:41;98.00;;;39.13;;
25950;SDS011;13748;52.240;6.002;2023-04-07T00:26:08;110.17;;;40.27;;
25950;SDS011;13748;52.240;6.002;2023-04-07T00:28:35;99.60;;;37.90;;
25950;SDS011;13748;52.240;6.002;2023-04-07T00:31:02;105.33;;;38.43;;
25950;SDS011;13748;52.240;6.002;2023-04-07T00:33:29;99.97;;;37.93;;
25950;SDS011;13748;52.240;6.002;2023-04-07T00:35:56;86.80;;;36.10;;
25950;SDS011;13748;52.240;6.002;2023-04-07T00:38:24;111.63;;;39.30;;
25950;SDS011;13748;52.240;6.002;2023-04-07T00:40:56;120.63;;;38.10;;
25950;SDS011;13748;52.240;6.002;2023-04-07T00:43:23;89.07;;;34.33;;
25950;SDS011;13748;52.240;6.002;2023-04-07T00:45:51;86.70;;;32.13;;
25950;SDS011;13748;52.240;6.002;2023-04-07T00:48:19;68.07;;;29.73;;
25950;SDS011;13748;52.240;6.002;2023-04-07T00:50:46;78.57;;;31.23;;
25950;SDS011;13748;52.240;6.002;2023-04-07T00:53:13;79.97;;;30.40;;
25950;SDS011;13748;52.240;6.002;2023-04-07T00:55:41;76.37;;;30.67;;
25950;SDS011;13748;52.240;6.002;2023-04-07T00:58:08;70.43;;;28.57;;
25950;SDS011;13748;52.240;6.002;2023-04-07T01:00:37;62.47;;;25.57;;
25950;SDS011;13748;52.240;6.002;2023-04-07T01:03:21;54.33;;;24.17;;
25950;SDS011;13748;52.240;6.002;2023-04-07T01:06:01;50.77;;;22.40;;
25950;SDS011;13748;52.240;6.002;2023-04-07T01:11:33;42.27;;;17.77;;
25950;SDS011;13748;52.240;6.002;2023-04-07T01:14:08;33.10;;;14.63;;
25950;SDS011;13748;52.240;6.002;2023-04-07T01:16:43;19.57;;;10.70;;
25950;SDS011;13748;52.240;6.002;2023-04-07T01:21:59;24.67;;;10.83;;
25950;SDS011;13748;52.240;6.002;2023-04-07T01:24:38;28.30;;;9.70;;
25950;SDS011;13748;52.240;6.002;2023-04-07T01:27:41;24.53;;;9.40;;
25950;SDS011;13748;52.240;6.002;2023-04-07T01:30:29;20.23;;;8.63;;
25950;SDS011;13748;52.240;6.002;2023-04-07T01:32:58;19.10;;;8.93;;
25950;SDS011;13748;52.240;6.002;2023-04-07T01:35:28;21.37;;;8.90;;
25950;SDS011;13748;52.240;6.002;2023-04-07T01:37:58;21.20;;;9.23;;
25950;SDS011;13748;52.240;6.002;2023-04-07T01:40:26;26.33;;;10.17;;
25950;SDS011;13748;52.240;6.002;2023-04-07T01:42:55;25.53;;;9.53;;
25950;SDS011;13748;52.240;6.002;2023-04-07T01:45:27;23.87;;;9.67;;
25950;SDS011;13748;52.240;6.002;2023-04-07T01:47:55;22.13;;;9.27;;
25950;SDS011;13748;52.240;6.002;2023-04-07T01:50:23;21.17;;;9.17;;
25950;SDS011;13748;52.240;6.002;2023-04-07T01:52:51;24.03;;;10.17;;
25950;SDS011;13748;52.240;6.002;2023-04-07T01:55:18;26.73;;;9.97;;
25950;SDS011;13748;52.240;6.002;2023-04-07T01:57:46;21.07;;;9.83;;
25950;SDS011;13748;52.240;6.002;2023-04-07T02:00:13;24.80;;;9.90;;
25950;SDS011;13748;52.240;6.002;2023-04-07T02:02:40;27.67;;;10.27;;
25950;SDS011;13748;52.240;6.002;2023-04-07T02:05:11;23.77;;;9.87;;
25950;SDS011;13748;52.240;6.002;2023-04-07T02:07:41;21.83;;;10.63;;
25950;SDS011;13748;52.240;6.002;2023-04-07T02:10:19;23.50;;;9.67;;
25950;SDS011;13748;52.240;6.002;2023-04-07T02:12:48;22.13;;;10.00;;
25950;SDS011;13748;52.240;6.002;2023-04-07T02:15:15;24.07;;;10.53;;
25950;SDS011;13748;52.240;6.002;2023-04-07T02:17:45;20.93;;;10.70;;
25950;SDS011;13748;52.240;6.002;2023-04-07T02:20:17;25.47;;;10.73;;
25950;SDS011;13748;52.240;6.002;2023-04-07T02:22:48;27.37;;;10.87;;
25950;SDS011;13748;52.240;6.002;2023-04-07T02:25:33;28.73;;;11.03;;
25950;SDS011;13748;52.240;6.002;2023-04-07T02:28:00;27.70;;;10.53;;
25950;SDS011;13748;52.240;6.002;2023-04-07T02:30:27;27.73;;;11.17;;
25950;SDS011;13748;52.240;6.002;2023-04-07T02:32:54;33.67;;;11.53;;
25950;SDS011;13748;52.240;6.002;2023-04-07T02:35:21;32.40;;;13.37;;
25950;SDS011;13748;52.240;6.002;2023-04-07T02:37:48;34.20;;;11.93;;
25950;SDS011;13748;52.240;6.002;2023-04-07T02:40:16;37.40;;;12.00;;
25950;SDS011;13748;52.240;6.002;2023-04-07T02:42:43;33.97;;;12.07;;
25950;SDS011;13748;52.240;6.002;2023-04-07T02:45:10;33.93;;;12.43;;
25950;SDS011;13748;52.240;6.002;2023-04-07T02:47:37;37.20;;;13.30;;
25950;SDS011;13748;52.240;6.002;2023-04-07T02:50:05;30.53;;;12.63;;
25950;SDS011;13748;52.240;6.002;2023-04-07T02:52:32;36.73;;;12.97;;
25950;SDS011;13748;52.240;6.002;2023-04-07T02:54:59;30.30;;;11.30;;
25950;SDS011;13748;52.240;6.002;2023-04-07T02:57:26;34.17;;;13.20;;
25950;SDS011;13748;52.240;6.002;2023-04-07T02:59:53;39.80;;;13.47;;
25950;SDS011;13748;52.240;6.002;2023-04-07T03:02:24;40.60;;;13.90;;
25950;SDS011;13748;52.240;6.002;2023-04-07T03:04:51;31.63;;;12.90;;
25950;SDS011;13748;52.240;6.002;2023-04-07T03:07:21;32.87;;;13.30;;
25950;SDS011;13748;52.240;6.002;2023-04-07T03:09:47;36.80;;;13.20;;
25950;SDS011;13748;52.240;6.002;2023-04-07T03:12:14;28.63;;;12.97;;
25950;SDS011;13748;52.240;6.002;2023-04-07T03:14:41;35.63;;;13.77;;
25950;SDS011;13748;52.240;6.002;2023-04-07T03:17:08;30.60;;;13.27;;
25950;SDS011;13748;52.240;6.002;2023-04-07T03:19:35;33.13;;;12.63;;
25950;SDS011;13748;52.240;6.002;2023-04-07T03:22:02;38.37;;;14.63;;
25950;SDS011;13748;52.240;6.002;2023-04-07T03:24:29;31.90;;;13.90;;
25950;SDS011;13748;52.240;6.002;2023-04-07T03:26:56;31.63;;;12.90;;
25950;SDS011;13748;52.240;6.002;2023-04-07T03:29:23;35.63;;;13.33;;
25950;SDS011;13748;52.240;6.002;2023-04-07T03:31:50;34.47;;;13.77;;
25950;SDS011;13748;52.240;6.002;2023-04-07T03:34:17;32.17;;;12.70;;
25950;SDS011;13748;52.240;6.002;2023-04-07T03:36:44;35.53;;;12.80;;
25950;SDS011;13748;52.240;6.002;2023-04-07T03:39:11;31.17;;;11.50;;
25950;SDS011;13748;52.240;6.002;2023-04-07T03:41:38;37.90;;;13.73;;
25950;SDS011;13748;52.240;6.002;2023-04-07T03:44:05;38.30;;;12.67;;
25950;SDS011;13748;52.240;6.002;2023-04-07T03:46:32;33.23;;;12.87;;
25950;SDS011;13748;52.240;6.002;2023-04-07T03:48:59;34.90;;;13.33;;
25950;SDS011;13748;52.240;6.002;2023-04-07T03:51:25;24.87;;;11.93;;
25950;SDS011;13748;52.240;6.002;2023-04-07T03:53:53;32.93;;;12.47;;
25950;SDS011;13748;52.240;6.002;2023-04-07T03:56:20;43.57;;;13.70;;
25950;SDS011;13748;52.240;6.002;2023-04-07T03:58:47;31.87;;;12.83;;
25950;SDS011;13748;52.240;6.002;2023-04-07T04:01:14;33.03;;;12.43;;
25950;SDS011;13748;52.240;6.002;2023-04-07T04:03:41;33.33;;;12.57;;
25950;SDS011;13748;52.240;6.002;2023-04-07T04:06:08;33.77;;;12.70;;
25950;SDS011;13748;52.240;6.002;2023-04-07T04:08:35;32.77;;;12.43;;
25950;SDS011;13748;52.240;6.002;2023-04-07T04:11:02;35.87;;;12.27;;
25950;SDS011;13748;52.240;6.002;2023-04-07T04:13:28;32.20;;;12.50;;
25950;SDS011;13748;52.240;6.002;2023-04-07T04:15:55;25.27;;;11.77;;
25950;SDS011;13748;52.240;6.002;2023-04-07T04:18:22;27.97;;;11.30;;
25950;SDS011;13748;52.240;6.002;2023-04-07T04:20:49;32.17;;;11.67;;
25950;SDS011;13748;52.240;6.002;2023-04-07T04:23:16;32.37;;;11.30;;
25950;SDS011;13748;52.240;6.002;2023-04-07T04:25:42;26.50;;;11.50;;
25950;SDS011;13748;52.240;6.002;2023-04-07T04:28:09;34.17;;;11.97;;
25950;SDS011;13748;52.240;6.002;2023-04-07T04:30:36;33.00;;;12.10;;
25950;SDS011;13748;52.240;6.002;2023-04-07T04:33:03;32.50;;;12.37;;
25950;SDS011;13748;52.240;6.002;2023-04-07T04:35:29;27.83;;;11.03;;
25950;SDS011;13748;52.240;6.002;2023-04-07T04:37:56;25.77;;;11.50;;
25950;SDS011;13748;52.240;6.002;2023-04-07T04:40:23;31.60;;;11.80;;
25950;SDS011;13748;52.240;6.002;2023-04-07T04:42:50;34.17;;;12.23;;
25950;SDS011;13748;52.240;6.002;2023-04-07T04:45:17;33.70;;;12.73;;
25950;SDS011;13748;52.240;6.002;2023-04-07T04:47:43;43.00;;;13.47;;
25950;SDS011;13748;52.240;6.002;2023-04-07T04:50:11;34.43;;;12.87;;
25950;SDS011;13748;52.240;6.002;2023-04-07T04:52:38;34.90;;;12.03;;
25950;SDS011;13748;52.240;6.002;2023-04-07T04:55:05;35.60;;;13.87;;
25950;SDS011;13748;52.240;6.002;2023-04-07T04:57:33;31.80;;;12.87;;
25950;SDS011;13748;52.240;6.002;2023-04-07T05:00:01;34.77;;;13.70;;
25950;SDS011;13748;52.240;6.002;2023-04-07T05:02:29;34.63;;;13.37;;
25950;SDS011;13748;52.240;6.002;2023-04-07T05:04:56;29.03;;;12.17;;
25950;SDS011;13748;52.240;6.002;2023-04-07T05:07:24;36.33;;;12.40;;
25950;SDS011;13748;52.240;6.002;2023-04-07T05:09:51;36.47;;;13.37;;
25950;SDS011;13748;52.240;6.002;2023-04-07T05:12:18;39.70;;;12.57;;
25950;SDS011;13748;52.240;6.002;2023-04-07T05:14:44;35.40;;;11.93;;
25950;SDS011;13748;52.240;6.002;2023-04-07T05:17:11;35.17;;;12.77;;
25950;SDS011;13748;52.240;6.002;2023-04-07T05:19:38;31.87;;;12.87;;
25950;SDS011;13748;52.240;6.002;2023-04-07T05:22:05;34.93;;;12.53;;
25950;SDS011;13748;52.240;6.002;2023-04-07T05:24:32;33.13;;;12.73;;
25950;SDS011;13748;52.240;6.002;2023-04-07T05:26:59;36.30;;;12.20;;
25950;SDS011;13748;52.240;6.002;2023-04-07T05:29:28;30.03;;;12.30;;
25950;SDS011;13748;52.240;6.002;2023-04-07T05:31:55;30.27;;;12.37;;
25950;SDS011;13748;52.240;6.002;2023-04-07T05:34:21;27.67;;;12.13;;
25950;SDS011;13748;52.240;6.002;2023-04-07T05:36:48;26.70;;;11.47;;
25950;SDS011;13748;52.240;6.002;2023-04-07T05:39:15;30.70;;;11.57;;
25950;SDS011;13748;52.240;6.002;2023-04-07T05:41:42;26.57;;;10.97;;
25950;SDS011;13748;52.240;6.002;2023-04-07T05:44:08;30.87;;;11.67;;
25950;SDS011;13748;52.240;6.002;2023-04-07T05:46:35;31.17;;;12.10;;
25950;SDS011;13748;52.240;6.002;2023-04-07T05:49:02;25.43;;;10.53;;
25950;SDS011;13748;52.240;6.002;2023-04-07T05:51:43;27.97;;;10.93;;
25950;SDS011;13748;52.240;6.002;2023-04-07T05:54:13;22.70;;;10.83;;
25950;SDS011;13748;52.240;6.002;2023-04-07T05:56:40;26.10;;;11.60;;
25950;SDS011;13748;52.240;6.002;2023-04-07T05:59:07;31.33;;;11.13;;
25950;SDS011;13748;52.240;6.002;2023-04-07T06:01:34;29.67;;;11.23;;
25950;SDS011;13748;52.240;6.002;2023-04-07T06:04:01;32.30;;;11.37;;
25950;SDS011;13748;52.240;6.002;2023-04-07T06:06:28;22.20;;;10.47;;
25950;SDS011;13748;52.240;6.002;2023-04-07T06:08:56;23.40;;;10.47;;
25950;SDS011;13748;52.240;6.002;2023-04-07T06:11:23;29.03;;;11.20;;
25950;SDS011;13748;52.240;6.002;2023-04-07T06:13:51;27.57;;;11.37;;
25950;SDS011;13748;52.240;6.002;2023-04-07T06:16:18;24.87;;;10.90;;
25950;SDS011;13748;52.240;6.002;2023-04-07T06:18:45;25.10;;;11.10;;
25950;SDS011;13748;52.240;6.002;2023-04-07T06:21:12;21.07;;;10.27;;
25950;SDS011;13748;52.240;6.002;2023-04-07T06:23:39;25.43;;;10.23;;
25950;SDS011;13748;52.240;6.002;2023-04-07T06:26:09;24.10;;;10.17;;
25950;SDS011;13748;52.240;6.002;2023-04-07T06:28:37;22.20;;;9.77;;
25950;SDS011;13748;52.240;6.002;2023-04-07T06:31:04;22.10;;;9.03;;
25950;SDS011;13748;52.240;6.002;2023-04-07T06:33:31;23.47;;;9.17;;
25950;SDS011;13748;52.240;6.002;2023-04-07T06:35:58;17.13;;;9.10;;
25950;SDS011;13748;52.240;6.002;2023-04-07T06:38:28;20.53;;;8.90;;
25950;SDS011;13748;52.240;6.002;2023-04-07T06:40:55;20.90;;;9.60;;
25950;SDS011;13748;52.240;6.002;2023-04-07T06:43:21;18.83;;;9.90;;
25950;SDS011;13748;52.240;6.002;2023-04-07T06:45:49;15.77;;;8.50;;
25950;SDS011;13748;52.240;6.002;2023-04-07T06:48:15;20.63;;;9.17;;
25950;SDS011;13748;52.240;6.002;2023-04-07T06:50:45;17.83;;;8.77;;
25950;SDS011;13748;52.240;6.002;2023-04-07T06:53:14;18.33;;;8.80;;
25950;SDS011;13748;52.240;6.002;2023-04-07T06:55:41;12.77;;;7.53;;
25950;SDS011;13748;52.240;6.002;2023-04-07T06:58:08;18.37;;;8.00;;
25950;SDS011;13748;52.240;6.002;2023-04-07T07:00:35;13.87;;;7.07;;
25950;SDS011;13748;52.240;6.002;2023-04-07T07:03:02;13.20;;;6.63;;
25950;SDS011;13748;52.240;6.002;2023-04-07T07:05:29;13.60;;;7.20;;
25950;SDS011;13748;52.240;6.002;2023-04-07T07:07:56;13.20;;;6.80;;
25950;SDS011;13748;52.240;6.002;2023-04-07T07:10:22;11.97;;;6.33;;
25950;SDS011;13748;52.240;6.002;2023-04-07T07:12:49;12.63;;;6.13;;
25950;SDS011;13748;52.240;6.002;2023-04-07T07:15:16;9.83;;;5.73;;
25950;SDS011;13748;52.240;6.002;2023-04-07T07:17:43;11.03;;;5.00;;
25950;SDS011;13748;52.240;6.002;2023-04-07T07:20:11;11.53;;;5.07;;
25950;SDS011;13748;52.240;6.002;2023-04-07T07:22:38;8.20;;;5.30;;
25950;SDS011;13748;52.240;6.002;2023-04-07T07:25:04;11.07;;;5.53;;
25950;SDS011;13748;52.240;6.002;2023-04-07T07:27:32;9.80;;;5.33;;
25950;SDS011;13748;52.240;6.002;2023-04-07T07:29:59;9.23;;;4.60;;
25950;SDS011;13748;52.240;6.002;2023-04-07T07:32:26;8.83;;;4.67;;
25950;SDS011;13748;52.240;6.002;2023-04-07T07:34:53;8.33;;;4.77;;
25950;SDS011;13748;52.240;6.002;2023-04-07T07:37:20;10.13;;;5.57;;
25950;SDS011;13748;52.240;6.002;2023-04-07T07:39:47;6.50;;;4.53;;
25950;SDS011;13748;52.240;6.002;2023-04-07T07:42:14;10.37;;;5.07;;
25950;SDS011;13748;52.240;6.002;2023-04-07T07:44:41;10.17;;;6.13;;
25950;SDS011;13748;52.240;6.002;2023-04-07T07:47:08;9.17;;;4.87;;
25950;SDS011;13748;52.240;6.002;2023-04-07T07:49:35;9.83;;;5.33;;
25950;SDS011;13748;52.240;6.002;2023-04-07T07:52:02;8.00;;;5.90;;
25950;SDS011;13748;52.240;6.002;2023-04-07T07:54:29;8.77;;;5.47;;
25950;SDS011;13748;52.240;6.002;2023-04-07T07:56:56;11.17;;;5.73;;
25950;SDS011;13748;52.240;6.002;2023-04-07T07:59:22;7.17;;;4.70;;
25950;SDS011;13748;52.240;6.002;2023-04-07T08:01:49;6.53;;;4.40;;
25950;SDS011;13748;52.240;6.002;2023-04-07T08:04:16;7.33;;;4.53;;
25950;SDS011;13748;52.240;6.002;2023-04-07T08:06:43;6.13;;;4.30;;
25950;SDS011;13748;52.240;6.002;2023-04-07T08:09:10;7.17;;;4.10;;
25950;SDS011;13748;52.240;6.002;2023-04-07T08:11:40;7.30;;;4.03;;
25950;SDS011;13748;52.240;6.002;2023-04-07T08:14:07;7.87;;;5.00;;
25950;SDS011;13748;52.240;6.002;2023-04-07T08:16:35;4.90;;;3.57;;
25950;SDS011;13748;52.240;6.002;2023-04-07T08:19:02;6.10;;;4.17;;
25950;SDS011;13748;52.240;6.002;2023-04-07T08:21:28;7.17;;;3.87;;
25950;SDS011;13748;52.240;6.002;2023-04-07T08:23:56;6.27;;;3.97;;
25950;SDS011;13748;52.240;6.002;2023-04-07T08:26:23;6.20;;;4.10;;
25950;SDS011;13748;52.240;6.002;2023-04-07T08:28:50;10.40;;;4.10;;
25950;SDS011;13748;52.240;6.002;2023-04-07T08:31:18;5.43;;;3.70;;
25950;SDS011;13748;52.240;6.002;2023-04-07T08:33:45;5.87;;;3.60;;
25950;SDS011;13748;52.240;6.002;2023-04-07T08:36:12;5.93;;;3.50;;
25950;SDS011;13748;52.240;6.002;2023-04-07T08:38:39;7.63;;;4.00;;
25950;SDS011;13748;52.240;6.002;2023-04-07T08:41:10;9.10;;;4.73;;
25950;SDS011;13748;52.240;6.002;2023-04-07T08:43:38;6.23;;;4.23;;
25950;SDS011;13748;52.240;6.002;2023-04-07T08:46:06;7.23;;;4.10;;
25950;SDS011;13748;52.240;6.002;2023-04-07T08:48:36;7.87;;;4.23;;
25950;SDS011;13748;52.240;6.002;2023-04-07T08:51:04;4.50;;;3.70;;
25950;SDS011;13748;52.240;6.002;2023-04-07T08:53:43;7.13;;;4.60;;
25950;SDS011;13748;52.240;6.002;2023-04-07T08:56:18;7.50;;;4.70;;
25950;SDS011;13748;52.240;6.002;2023-04-07T08:58:52;5.23;;;3.60;;
25950;SDS011;13748;52.240;6.002;2023-04-07T09:01:20;6.10;;;4.00;;
25950;SDS011;13748;52.240;6.002;2023-04-07T09:03:48;8.40;;;4.40;;
25950;SDS011;13748;52.240;6.002;2023-04-07T09:06:16;5.40;;;3.50;;
25950;SDS011;13748;52.240;6.002;2023-04-07T09:08:43;2.73;;;2.33;;
25950;SDS011;13748;52.240;6.002;2023-04-07T09:11:10;5.10;;;2.83;;
25950;SDS011;13748;52.240;6.002;2023-04-07T09:13:37;4.87;;;2.30;;
25950;SDS011;13748;52.240;6.002;2023-04-07T09:16:04;2.43;;;2.23;;
25950;SDS011;13748;52.240;6.002;2023-04-07T09:18:31;3.10;;;2.60;;
25950;SDS011;13748;52.240;6.002;2023-04-07T09:21:02;4.50;;;2.30;;
25950;SDS011;13748;52.240;6.002;2023-04-07T09:23:34;3.17;;;2.20;;
25950;SDS011;13748;52.240;6.002;2023-04-07T09:28:59;3.27;;;2.77;;
25950;SDS011;13748;52.240;6.002;2023-04-07T09:32:01;4.50;;;2.90;;
25950;SDS011;13748;52.240;6.002;2023-04-07T09:34:24;3.70;;;2.60;;
25950;SDS011;13748;52.240;6.002;2023-04-07T09:36:55;4.10;;;2.43;;
25950;SDS011;13748;52.240;6.002;2023-04-07T09:39:22;3.87;;;2.40;;
25950;SDS011;13748;52.240;6.002;2023-04-07T09:41:50;4.60;;;2.90;;
25950;SDS011;13748;52.240;6.002;2023-04-07T09:44:21;3.20;;;2.30;;
25950;SDS011;13748;52.240;6.002;2023-04-07T09:46:52;5.63;;;2.67;;
25950;SDS011;13748;52.240;6.002;2023-04-07T09:49:21;4.17;;;2.70;;
25950;SDS011;13748;52.240;6.002;2023-04-07T09:51:53;3.87;;;2.53;;
25950;SDS011;13748;52.240;6.002;2023-04-07T09:54:39;3.27;;;2.40;;
25950;SDS011;13748;52.240;6.002;2023-04-07T09:57:07;3.57;;;2.30;;
25950;SDS011;13748;52.240;6.002;2023-04-07T09:59:39;2.83;;;2.30;;
25950;SDS011;13748;52.240;6.002;2023-04-07T10:02:10;2.97;;;2.67;;
25950;SDS011;13748;52.240;6.002;2023-04-07T10:04:37;4.33;;;2.87;;
25950;SDS011;13748;52.240;6.002;2023-04-07T10:07:05;4.87;;;2.63;;
25950;SDS011;13748;52.240;6.002;2023-04-07T10:09:32;3.10;;;2.80;;
25950;SDS011;13748;52.240;6.002;2023-04-07T10:11:59;5.03;;;3.00;;
25950;SDS011;13748;52.240;6.002;2023-04-07T10:14:27;3.17;;;2.67;;
25950;SDS011;13748;52.240;6.002;2023-04-07T10:16:56;4.87;;;3.20;;
25950;SDS011;13748;52.240;6.002;2023-04-07T10:19:25;4.90;;;3.83;;
25950;SDS011;13748;52.240;6.002;2023-04-07T10:21:57;3.57;;;3.23;;
25950;SDS011;13748;52.240;6.002;2023-04-07T10:26:59;5.60;;;3.40;;
25950;SDS011;13748;52.240;6.002;2023-04-07T10:29:31;3.50;;;2.73;;
25950;SDS011;13748;52.240;6.002;2023-04-07T10:32:02;5.67;;;3.30;;
25950;SDS011;13748;52.240;6.002;2023-04-07T10:37:16;4.57;;;3.50;;
25950;SDS011;13748;52.240;6.002;2023-04-07T10:39:47;6.20;;;4.60;;
25950;SDS011;13748;52.240;6.002;2023-04-07T10:45:05;6.43;;;4.40;;
25950;SDS011;13748;52.240;6.002;2023-04-07T10:47:33;7.30;;;5.30;;
25950;SDS011;13748;52.240;6.002;2023-04-07T10:52:46;8.40;;;5.20;;
25950;SDS011;13748;52.240;6.002;2023-04-07T11:03:27;11.67;;;5.73;;
25950;SDS011;13748;52.240;6.002;2023-04-07T11:06:02;8.47;;;5.30;;
25950;SDS011;13748;52.240;6.002;2023-04-07T11:08:35;12.33;;;6.70;;
25950;SDS011;13748;52.240;6.002;2023-04-07T11:11:02;8.70;;;5.50;;
25950;SDS011;13748;52.240;6.002;2023-04-07T11:16:07;7.07;;;5.20;;
25950;SDS011;13748;52.240;6.002;2023-04-07T11:18:35;8.00;;;4.90;;
25950;SDS011;13748;52.240;6.002;2023-04-07T11:21:02;7.80;;;4.97;;
25950;SDS011;13748;52.240;6.002;2023-04-07T11:23:37;8.50;;;4.77;;
25950;SDS011;13748;52.240;6.002;2023-04-07T11:26:05;10.37;;;6.00;;
25950;SDS011;13748;52.240;6.002;2023-04-07T11:28:33;6.43;;;4.40;;
25950;SDS011;13748;52.240;6.002;2023-04-07T11:31:01;9.13;;;5.50;;
25950;SDS011;13748;52.240;6.002;2023-04-07T11:33:30;8.17;;;5.03;;
25950;SDS011;13748;52.240;6.002;2023-04-07T11:35:58;9.60;;;5.10;;
25950;SDS011;13748;52.240;6.002;2023-04-07T11:38:27;10.03;;;5.33;;
25950;SDS011;13748;52.240;6.002;2023-04-07T11:41:08;9.63;;;5.17;;
25950;SDS011;13748;52.240;6.002;2023-04-07T11:43:37;13.57;;;6.07;;
25950;SDS011;13748;52.240;6.002;2023-04-07T11:46:07;10.30;;;6.57;;
25950;SDS011;13748;52.240;6.002;2023-04-07T11:48:39;13.57;;;5.73;;
25950;SDS011;13748;52.240;6.002;2023-04-07T11:51:17;10.47;;;5.57;;
25950;SDS011;13748;52.240;6.002;2023-04-07T11:53:46;11.17;;;5.97;;
25950;SDS011;13748;52.240;6.002;2023-04-07T11:56:14;12.47;;;6.40;;
25950;SDS011;13748;52.240;6.002;2023-04-07T11:58:49;13.50;;;6.47;;
25950;SDS011;13748;52.240;6.002;2023-04-07T12:01:16;10.43;;;5.57;;
25950;SDS011;13748;52.240;6.002;2023-04-07T12:03:54;8.90;;;5.77;;
25950;SDS011;13748;52.240;6.002;2023-04-07T12:08:56;8.67;;;5.40;;
25950;SDS011;13748;52.240;6.002;2023-04-07T12:11:22;8.47;;;6.00;;
25950;SDS011;13748;52.240;6.002;2023-04-07T12:13:50;11.13;;;6.33;;
25950;SDS011;13748;52.240;6.002;2023-04-07T12:16:17;12.03;;;6.70;;
25950;SDS011;13748;52.240;6.002;2023-04-07T12:18:44;12.33;;;6.07;;
25950;SDS011;13748;52.240;6.002;2023-04-07T12:21:11;10.67;;;5.97;;
25950;SDS011;13748;52.240;6.002;2023-04-07T12:23:38;13.23;;;6.17;;
25950;SDS011;13748;52.240;6.002;2023-04-07T12:26:05;11.03;;;6.40;;
25950;SDS011;13748;52.240;6.002;2023-04-07T12:28:31;14.77;;;7.03;;
25950;SDS011;13748;52.240;6.002;2023-04-07T12:30:58;14.03;;;6.53;;
25950;SDS011;13748;52.240;6.002;2023-04-07T12:33:25;9.60;;;5.87;;
25950;SDS011;13748;52.240;6.002;2023-04-07T12:35:52;11.00;;;5.60;;
25950;SDS011;13748;52.240;6.002;2023-04-07T12:38:19;8.17;;;5.07;;
25950;SDS011;13748;52.240;6.002;2023-04-07T12:40:46;11.50;;;5.27;;
25950;SDS011;13748;52.240;6.002;2023-04-07T12:43:13;7.90;;;5.03;;
25950;SDS011;13748;52.240;6.002;2023-04-07T12:45:40;8.47;;;5.03;;
25950;SDS011;13748;52.240;6.002;2023-04-07T12:48:08;10.57;;;5.47;;
25950;SDS011;13748;52.240;6.002;2023-04-07T12:50:35;8.47;;;4.97;;
25950;SDS011;13748;52.240;6.002;2023-04-07T12:53:02;8.67;;;4.83;;
25950;SDS011;13748;52.240;6.002;2023-04-07T12:55:31;7.70;;;4.70;;
25950;SDS011;13748;52.240;6.002;2023-04-07T12:57:59;9.47;;;5.50;;
25950;SDS011;13748;52.240;6.002;2023-04-07T13:00:26;7.80;;;5.20;;
25950;SDS011;13748;52.240;6.002;2023-04-07T13:02:52;8.47;;;5.43;;
25950;SDS011;13748;52.240;6.002;2023-04-07T13:05:19;9.50;;;6.47;;
25950;SDS011;13748;52.240;6.002;2023-04-07T13:07:46;11.07;;;6.13;;
25950;SDS011;13748;52.240;6.002;2023-04-07T13:10:15;10.40;;;5.70;;
25950;SDS011;13748;52.240;6.002;2023-04-07T13:12:41;11.93;;;6.67;;
25950;SDS011;13748;52.240;6.002;2023-04-07T13:15:08;8.07;;;5.77;;
25950;SDS011;13748;52.240;6.002;2023-04-07T13:17:35;9.90;;;5.80;;
25950;SDS011;13748;52.240;6.002;2023-04-07T13:20:04;7.47;;;4.40;;
25950;SDS011;13748;52.240;6.002;2023-04-07T13:22:32;7.13;;;4.20;;
25950;SDS011;13748;52.240;6.002;2023-04-07T13:25:01;8.77;;;4.63;;
25950;SDS011;13748;52.240;6.002;2023-04-07T13:27:27;5.77;;;4.07;;
25950;SDS011;13748;52.240;6.002;2023-04-07T13:29:54;9.60;;;4.63;;
25950;SDS011;13748;52.240;6.002;2023-04-07T13:32:21;8.03;;;4.80;;
25950;SDS011;13748;52.240;6.002;2023-04-07T13:34:49;6.17;;;4.37;;
25950;SDS011;13748;52.240;6.002;2023-04-07T13:37:16;6.43;;;4.50;;
25950;SDS011;13748;52.240;6.002;2023-04-07T13:39:44;8.90;;;5.07;;
25950;SDS011;13748;52.240;6.002;2023-04-07T13:42:12;7.67;;;4.97;;
25950;SDS011;13748;52.240;6.002;2023-04-07T13:44:41;7.43;;;4.50;;
25950;SDS011;13748;52.240;6.002;2023-04-07T13:47:12;6.67;;;4.10;;
25950;SDS011;13748;52.240;6.002;2023-04-07T13:49:45;9.47;;;4.63;;
25950;SDS011;13748;52.240;6.002;2023-04-07T13:52:12;6.57;;;4.20;;
25950;SDS011;13748;52.240;6.002;2023-04-07T13:54:40;7.93;;;4.37;;
25950;SDS011;13748;52.240;6.002;2023-04-07T13:57:07;9.30;;;4.53;;
25950;SDS011;13748;52.240;6.002;2023-04-07T13:59:34;12.37;;;5.13;;
25950;SDS011;13748;52.240;6.002;2023-04-07T14:02:01;9.00;;;4.40;;
25950;SDS011;13748;52.240;6.002;2023-04-07T14:04:27;8.07;;;5.03;;
25950;SDS011;13748;52.240;6.002;2023-04-07T14:06:54;9.67;;;5.33;;
25950;SDS011;13748;52.240;6.002;2023-04-07T14:09:21;5.37;;;3.50;;
25950;SDS011;13748;52.240;6.002;2023-04-07T14:11:48;6.20;;;5.30;;
25950;SDS011;13748;52.240;6.002;2023-04-07T14:14:15;8.03;;;5.83;;
25950;SDS011;13748;52.240;6.002;2023-04-07T14:16:42;8.47;;;6.20;;
25950;SDS011;13748;52.240;6.002;2023-04-07T14:19:09;8.77;;;6.57;;
25950;SDS011;13748;52.240;6.002;2023-04-07T14:21:36;6.83;;;5.90;;
25950;SDS011;13748;52.240;6.002;2023-04-07T14:24:03;8.53;;;6.43;;
25950;SDS011;13748;52.240;6.002;2023-04-07T14:26:30;7.47;;;5.87;;
25950;SDS011;13748;52.240;6.002;2023-04-07T14:28:57;8.33;;;6.30;;
25950;SDS011;13748;52.240;6.002;2023-04-07T14:31:24;8.70;;;7.13;;
25950;SDS011;13748;52.240;6.002;2023-04-07T14:33:51;9.37;;;7.17;;
25950;SDS011;13748;52.240;6.002;2023-04-07T14:36:18;11.63;;;8.33;;
25950;SDS011;13748;52.240;6.002;2023-04-07T14:38:45;11.10;;;8.57;;
25950;SDS011;13748;52.240;6.002;2023-04-07T14:41:11;12.07;;;8.53;;
25950;SDS011;13748;52.240;6.002;2023-04-07T14:43:38;11.63;;;8.43;;
25950;SDS011;13748;52.240;6.002;2023-04-07T14:46:06;12.40;;;9.03;;
25950;SDS011;13748;52.240;6.002;2023-04-07T14:48:33;13.97;;;10.43;;
25950;SDS011;13748;52.240;6.002;2023-04-07T14:51:00;12.27;;;9.97;;
25950;SDS011;13748;52.240;6.002;2023-04-07T14:53:34;13.53;;;10.57;;
25950;SDS011;13748;52.240;6.002;2023-04-07T14:56:05;15.10;;;10.67;;
25950;SDS011;13748;52.240;6.002;2023-04-07T14:58:32;15.10;;;11.70;;
25950;SDS011;13748;52.240;6.002;2023-04-07T15:01:02;16.63;;;11.67;;
25950;SDS011;13748;52.240;6.002;2023-04-07T15:03:32;17.87;;;12.53;;
25950;SDS011;13748;52.240;6.002;2023-04-07T15:06:06;17.37;;;12.73;;
25950;SDS011;13748;52.240;6.002;2023-04-07T15:08:34;17.33;;;12.93;;
25950;SDS011;13748;52.240;6.002;2023-04-07T15:11:07;17.27;;;12.63;;
25950;SDS011;13748;52.240;6.002;2023-04-07T15:13:34;17.73;;;12.47;;